sensor_id;sensor_type;location;lat;lon;timestamp;P1;durP1;ratioP1;P2;durP2;ratioP2
74904;SDS011;63465;50.862;6.220;2023-04-24T00:01:47;2.17;;;2.00;;
74904;SDS011;63465;50.862;6.220;2023-04-24T00:04:13;2.00;;;1.90;;
74904;SDS011;63465;50.862;6.220;2023-04-24T00:06:41;2.20;;;1.90;;
74904;SDS011;63465;50.862;6.220;2023-04-24T00:09:07;2.07;;;1.97;;
74904;SDS011;63465;50.862;6.220;2023-04-24T00:11:34;3.63;;;1.83;;
74904;SDS011;63465;50.862;6.220;2023-04-24T00:14:00;2.00;;;1.90;;
74904;SDS011;63465;50.862;6.220;2023-04-24T00:16:26;3.00;;;2.33;;
74904;SDS011;63465;50.862;6.220;2023-04-24T00:18:51;1.90;;;1.80;;
74904;SDS011;63465;50.862;6.220;2023-04-24T00:21:21;1.80;;;1.70;;
74904;SDS011;63465;50.862;6.220;2023-04-24T00:23:46;2.83;;;2.50;;
74904;SDS011;63465;50.862;6.220;2023-04-24T00:26:12;4.93;;;3.10;;
74904;SDS011;63465;50.862;6.220;2023-04-24T00:28:37;5.63;;;3.30;;
74904;SDS011;63465;50.862;6.220;2023-04-24T00:31:03;3.30;;;3.00;;
74904;SDS011;63465;50.862;6.220;2023-04-24T00:33:28;3.73;;;3.43;;
74904;SDS011;63465;50.862;6.220;2023-04-24T00:35:53;3.93;;;2.70;;
74904;SDS011;63465;50.862;6.220;2023-04-24T00:38:19;3.63;;;3.33;;
74904;SDS011;63465;50.862;6.220;2023-04-24T00:40:44;4.43;;;3.30;;
74904;SDS011;63465;50.862;6.220;2023-04-24T00:43:09;8.50;;;3.50;;
74904;SDS011;63465;50.862;6.220;2023-04-24T00:45:35;8.43;;;3.90;;
74904;SDS011;63465;50.862;6.220;2023-04-24T00:48:01;4.57;;;3.80;;
74904;SDS011;63465;50.862;6.220;2023-04-24T00:50:27;4.17;;;3.40;;
74904;SDS011;63465;50.862;6.220;2023-04-24T00:52:53;4.40;;;3.40;;
74904;SDS011;63465;50.862;6.220;2023-04-24T00:55:19;3.50;;;3.20;;
74904;SDS011;63465;50.862;6.220;2023-04-24T00:57:45;4.73;;;4.27;;
74904;SDS011;63465;50.862;6.220;2023-04-24T01:00:11;10.07;;;4.70;;
74904;SDS011;63465;50.862;6.220;2023-04-24T01:02:38;6.87;;;3.87;;
74904;SDS011;63465;50.862;6.220;2023-04-24T01:05:05;7.17;;;4.20;;
74904;SDS011;63465;50.862;6.220;2023-04-24T01:07:34;5.07;;;4.13;;
74904;SDS011;63465;50.862;6.220;2023-04-24T01:10:00;5.97;;;4.77;;
74904;SDS011;63465;50.862;6.220;2023-04-24T01:12:26;9.00;;;5.33;;
74904;SDS011;63465;50.862;6.220;2023-04-24T01:14:51;7.23;;;5.03;;
74904;SDS011;63465;50.862;6.220;2023-04-24T01:17:16;7.67;;;5.67;;
74904;SDS011;63465;50.862;6.220;2023-04-24T01:19:42;9.07;;;5.27;;
74904;SDS011;63465;50.862;6.220;2023-04-24T01:22:15;11.00;;;5.60;;
74904;SDS011;63465;50.862;6.220;2023-04-24T01:24:42;9.00;;;5.70;;
74904;SDS011;63465;50.862;6.220;2023-04-24T01:27:08;11.50;;;5.63;;
74904;SDS011;63465;50.862;6.220;2023-04-24T01:29:34;9.97;;;6.50;;
74904;SDS011;63465;50.862;6.220;2023-04-24T01:32:00;10.23;;;6.50;;
74904;SDS011;63465;50.862;6.220;2023-04-24T01:34:26;14.00;;;6.60;;
74904;SDS011;63465;50.862;6.220;2023-04-24T01:36:52;8.30;;;5.90;;
74904;SDS011;63465;50.862;6.220;2023-04-24T01:39:17;9.67;;;5.70;;
74904;SDS011;63465;50.862;6.220;2023-04-24T01:41:45;7.27;;;5.53;;
74904;SDS011;63465;50.862;6.220;2023-04-24T01:44:10;8.00;;;5.60;;
74904;SDS011;63465;50.862;6.220;2023-04-24T01:46:36;10.10;;;6.53;;
74904;SDS011;63465;50.862;6.220;2023-04-24T01:49:01;7.87;;;5.47;;
74904;SDS011;63465;50.862;6.220;2023-04-24T01:51:27;9.30;;;5.97;;
74904;SDS011;63465;50.862;6.220;2023-04-24T01:53:52;9.53;;;5.63;;
74904;SDS011;63465;50.862;6.220;2023-04-24T01:56:19;12.40;;;7.10;;
74904;SDS011;63465;50.862;6.220;2023-04-24T01:58:46;9.87;;;5.93;;
74904;SDS011;63465;50.862;6.220;2023-04-24T02:01:17;14.60;;;6.57;;
74904;SDS011;63465;50.862;6.220;2023-04-24T02:03:43;10.00;;;5.00;;
74904;SDS011;63465;50.862;6.220;2023-04-24T02:06:09;10.73;;;6.57;;
74904;SDS011;63465;50.862;6.220;2023-04-24T02:08:34;10.83;;;6.70;;
74904;SDS011;63465;50.862;6.220;2023-04-24T02:10:59;11.97;;;6.80;;
74904;SDS011;63465;50.862;6.220;2023-04-24T02:13:26;7.53;;;5.87;;
74904;SDS011;63465;50.862;6.220;2023-04-24T02:15:52;6.40;;;4.57;;
74904;SDS011;63465;50.862;6.220;2023-04-24T02:18:17;9.97;;;6.47;;
74904;SDS011;63465;50.862;6.220;2023-04-24T02:20:42;10.20;;;7.07;;
74904;SDS011;63465;50.862;6.220;2023-04-24T02:23:07;11.07;;;6.10;;
74904;SDS011;63465;50.862;6.220;2023-04-24T02:25:33;15.63;;;5.10;;
74904;SDS011;63465;50.862;6.220;2023-04-24T02:27:58;13.10;;;6.20;;
74904;SDS011;63465;50.862;6.220;2023-04-24T02:30:23;11.80;;;5.97;;
74904;SDS011;63465;50.862;6.220;2023-04-24T02:32:49;10.67;;;6.33;;
74904;SDS011;63465;50.862;6.220;2023-04-24T02:35:14;10.47;;;7.63;;
74904;SDS011;63465;50.862;6.220;2023-04-24T02:37:39;8.50;;;5.83;;
74904;SDS011;63465;50.862;6.220;2023-04-24T02:40:05;7.27;;;5.90;;
74904;SDS011;63465;50.862;6.220;2023-04-24T02:42:31;17.50;;;7.40;;
74904;SDS011;63465;50.862;6.220;2023-04-24T02:44:56;11.00;;;5.73;;
74904;SDS011;63465;50.862;6.220;2023-04-24T02:47:21;20.07;;;9.13;;
74904;SDS011;63465;50.862;6.220;2023-04-24T02:49:47;9.83;;;6.60;;
74904;SDS011;63465;50.862;6.220;2023-04-24T02:52:12;11.60;;;6.90;;
74904;SDS011;63465;50.862;6.220;2023-04-24T02:54:38;19.67;;;5.33;;
74904;SDS011;63465;50.862;6.220;2023-04-24T02:57:03;12.43;;;6.33;;
74904;SDS011;63465;50.862;6.220;2023-04-24T02:59:28;8.43;;;5.87;;
74904;SDS011;63465;50.862;6.220;2023-04-24T03:01:54;11.80;;;6.90;;
74904;SDS011;63465;50.862;6.220;2023-04-24T03:04:19;15.90;;;7.40;;
74904;SDS011;63465;50.862;6.220;2023-04-24T03:06:45;9.77;;;6.93;;
74904;SDS011;63465;50.862;6.220;2023-04-24T03:09:11;9.07;;;6.37;;
74904;SDS011;63465;50.862;6.220;2023-04-24T03:11:36;11.40;;;6.97;;
74904;SDS011;63465;50.862;6.220;2023-04-24T03:14:01;11.63;;;6.83;;
74904;SDS011;63465;50.862;6.220;2023-04-24T03:16:27;12.50;;;7.20;;
74904;SDS011;63465;50.862;6.220;2023-04-24T03:18:52;10.50;;;6.90;;
74904;SDS011;63465;50.862;6.220;2023-04-24T03:21:17;12.67;;;6.70;;
74904;SDS011;63465;50.862;6.220;2023-04-24T03:23:43;12.10;;;6.90;;
74904;SDS011;63465;50.862;6.220;2023-04-24T03:26:08;13.80;;;6.80;;
74904;SDS011;63465;50.862;6.220;2023-04-24T03:28:33;10.53;;;6.40;;
74904;SDS011;63465;50.862;6.220;2023-04-24T03:30:59;12.97;;;6.60;;
74904;SDS011;63465;50.862;6.220;2023-04-24T03:33:24;10.50;;;6.10;;
74904;SDS011;63465;50.862;6.220;2023-04-24T03:35:50;11.23;;;6.47;;
74904;SDS011;63465;50.862;6.220;2023-04-24T03:38:15;11.90;;;5.87;;
74904;SDS011;63465;50.862;6.220;2023-04-24T03:40:40;7.80;;;5.67;;
74904;SDS011;63465;50.862;6.220;2023-04-24T03:43:06;7.70;;;4.53;;
74904;SDS011;63465;50.862;6.220;2023-04-24T03:45:31;10.23;;;7.13;;
74904;SDS011;63465;50.862;6.220;2023-04-24T03:47:56;7.93;;;6.10;;
74904;SDS011;63465;50.862;6.220;2023-04-24T03:50:22;7.43;;;5.20;;
74904;SDS011;63465;50.862;6.220;2023-04-24T03:52:47;10.23;;;5.93;;
74904;SDS011;63465;50.862;6.220;2023-04-24T03:55:12;10.67;;;6.43;;
74904;SDS011;63465;50.862;6.220;2023-04-24T03:57:39;7.73;;;6.03;;
74904;SDS011;63465;50.862;6.220;2023-04-24T04:00:05;10.90;;;7.20;;
74904;SDS011;63465;50.862;6.220;2023-04-24T04:02:31;9.50;;;5.70;;
74904;SDS011;63465;50.862;6.220;2023-04-24T04:04:56;7.30;;;5.57;;
74904;SDS011;63465;50.862;6.220;2023-04-24T04:07:22;9.60;;;5.23;;
74904;SDS011;63465;50.862;6.220;2023-04-24T04:09:47;8.87;;;5.63;;
74904;SDS011;63465;50.862;6.220;2023-04-24T04:12:12;11.20;;;6.33;;
74904;SDS011;63465;50.862;6.220;2023-04-24T04:14:37;9.80;;;6.50;;
74904;SDS011;63465;50.862;6.220;2023-04-24T04:17:03;10.50;;;6.50;;
74904;SDS011;63465;50.862;6.220;2023-04-24T04:19:28;7.97;;;6.10;;
74904;SDS011;63465;50.862;6.220;2023-04-24T04:21:53;10.47;;;6.50;;
74904;SDS011;63465;50.862;6.220;2023-04-24T04:24:21;8.77;;;6.47;;
74904;SDS011;63465;50.862;6.220;2023-04-24T04:26:47;10.27;;;6.77;;
74904;SDS011;63465;50.862;6.220;2023-04-24T04:29:15;15.70;;;7.87;;
74904;SDS011;63465;50.862;6.220;2023-04-24T04:31:41;10.63;;;6.80;;
74904;SDS011;63465;50.862;6.220;2023-04-24T04:34:06;8.93;;;6.07;;
74904;SDS011;63465;50.862;6.220;2023-04-24T04:36:32;11.63;;;7.77;;
74904;SDS011;63465;50.862;6.220;2023-04-24T04:39:02;13.33;;;7.30;;
74904;SDS011;63465;50.862;6.220;2023-04-24T04:41:27;10.50;;;6.97;;
74904;SDS011;63465;50.862;6.220;2023-04-24T04:43:53;8.10;;;5.20;;
74904;SDS011;63465;50.862;6.220;2023-04-24T04:46:18;12.27;;;7.53;;
74904;SDS011;63465;50.862;6.220;2023-04-24T04:48:43;13.67;;;7.30;;
74904;SDS011;63465;50.862;6.220;2023-04-24T04:51:09;7.93;;;5.43;;
74904;SDS011;63465;50.862;6.220;2023-04-24T04:53:34;11.70;;;6.63;;
74904;SDS011;63465;50.862;6.220;2023-04-24T04:56:00;17.57;;;7.90;;
74904;SDS011;63465;50.862;6.220;2023-04-24T04:58:25;10.10;;;6.83;;
74904;SDS011;63465;50.862;6.220;2023-04-24T05:00:51;12.80;;;6.43;;
74904;SDS011;63465;50.862;6.220;2023-04-24T05:03:17;11.60;;;8.33;;
74904;SDS011;63465;50.862;6.220;2023-04-24T05:05:42;8.10;;;6.33;;
74904;SDS011;63465;50.862;6.220;2023-04-24T05:08:08;12.00;;;7.37;;
74904;SDS011;63465;50.862;6.220;2023-04-24T05:10:33;9.10;;;6.87;;
74904;SDS011;63465;50.862;6.220;2023-04-24T05:12:59;9.03;;;6.30;;
74904;SDS011;63465;50.862;6.220;2023-04-24T05:15:24;12.23;;;7.27;;
74904;SDS011;63465;50.862;6.220;2023-04-24T05:17:49;8.90;;;6.03;;
74904;SDS011;63465;50.862;6.220;2023-04-24T05:20:15;5.67;;;4.77;;
74904;SDS011;63465;50.862;6.220;2023-04-24T05:22:40;11.10;;;6.70;;
74904;SDS011;63465;50.862;6.220;2023-04-24T05:25:05;6.77;;;4.60;;
74904;SDS011;63465;50.862;6.220;2023-04-24T05:27:31;8.33;;;5.40;;
74904;SDS011;63465;50.862;6.220;2023-04-24T05:29:56;7.30;;;5.20;;
74904;SDS011;63465;50.862;6.220;2023-04-24T05:32:22;6.53;;;4.60;;
74904;SDS011;63465;50.862;6.220;2023-04-24T05:34:47;6.10;;;4.67;;
74904;SDS011;63465;50.862;6.220;2023-04-24T05:37:12;5.13;;;3.13;;
74904;SDS011;63465;50.862;6.220;2023-04-24T05:39:37;5.30;;;4.17;;
74904;SDS011;63465;50.862;6.220;2023-04-24T05:42:03;8.20;;;3.97;;
74904;SDS011;63465;50.862;6.220;2023-04-24T05:44:29;5.43;;;4.23;;
74904;SDS011;63465;50.862;6.220;2023-04-24T05:46:55;6.00;;;3.43;;
74904;SDS011;63465;50.862;6.220;2023-04-24T05:49:20;9.63;;;4.77;;
74904;SDS011;63465;50.862;6.220;2023-04-24T05:51:46;5.50;;;4.50;;
74904;SDS011;63465;50.862;6.220;2023-04-24T05:54:11;5.20;;;4.70;;
74904;SDS011;63465;50.862;6.220;2023-04-24T05:56:37;4.77;;;3.90;;
74904;SDS011;63465;50.862;6.220;2023-04-24T05:59:02;4.50;;;3.77;;
74904;SDS011;63465;50.862;6.220;2023-04-24T06:01:28;6.13;;;3.97;;
74904;SDS011;63465;50.862;6.220;2023-04-24T06:03:54;5.57;;;4.40;;
74904;SDS011;63465;50.862;6.220;2023-04-24T06:06:20;3.63;;;3.30;;
74904;SDS011;63465;50.862;6.220;2023-04-24T06:08:45;3.30;;;3.10;;
74904;SDS011;63465;50.862;6.220;2023-04-24T06:11:11;4.00;;;3.70;;
74904;SDS011;63465;50.862;6.220;2023-04-24T06:13:36;3.13;;;2.83;;
74904;SDS011;63465;50.862;6.220;2023-04-24T06:16:01;3.40;;;3.07;;
74904;SDS011;63465;50.862;6.220;2023-04-24T06:18:27;3.67;;;3.23;;
74904;SDS011;63465;50.862;6.220;2023-04-24T06:20:52;4.10;;;3.70;;
74904;SDS011;63465;50.862;6.220;2023-04-24T06:23:17;6.70;;;4.13;;
74904;SDS011;63465;50.862;6.220;2023-04-24T06:25:43;6.73;;;4.50;;
74904;SDS011;63465;50.862;6.220;2023-04-24T06:28:08;6.20;;;5.00;;
74904;SDS011;63465;50.862;6.220;2023-04-24T06:30:33;6.77;;;4.20;;
74904;SDS011;63465;50.862;6.220;2023-04-24T06:32:58;4.77;;;4.20;;
74904;SDS011;63465;50.862;6.220;2023-04-24T06:35:24;4.10;;;3.67;;
74904;SDS011;63465;50.862;6.220;2023-04-24T06:37:49;3.80;;;3.27;;
74904;SDS011;63465;50.862;6.220;2023-04-24T06:40:15;5.03;;;4.53;;
74904;SDS011;63465;50.862;6.220;2023-04-24T06:42:40;3.60;;;3.30;;
74904;SDS011;63465;50.862;6.220;2023-04-24T06:45:05;5.57;;;4.80;;
74904;SDS011;63465;50.862;6.220;2023-04-24T06:47:31;3.30;;;3.10;;
74904;SDS011;63465;50.862;6.220;2023-04-24T06:49:57;4.37;;;3.40;;
74904;SDS011;63465;50.862;6.220;2023-04-24T06:52:22;2.57;;;2.43;;
74904;SDS011;63465;50.862;6.220;2023-04-24T06:54:48;2.00;;;1.90;;
74904;SDS011;63465;50.862;6.220;2023-04-24T06:57:13;2.10;;;2.00;;
74904;SDS011;63465;50.862;6.220;2023-04-24T06:59:38;2.67;;;2.47;;
74904;SDS011;63465;50.862;6.220;2023-04-24T07:02:04;1.80;;;1.70;;
74904;SDS011;63465;50.862;6.220;2023-04-24T07:04:29;3.17;;;2.20;;
74904;SDS011;63465;50.862;6.220;2023-04-24T07:06:55;2.73;;;2.53;;
74904;SDS011;63465;50.862;6.220;2023-04-24T07:09:22;2.73;;;2.60;;
74904;SDS011;63465;50.862;6.220;2023-04-24T07:11:49;3.30;;;2.70;;
74904;SDS011;63465;50.862;6.220;2023-04-24T07:14:15;2.37;;;2.17;;
74904;SDS011;63465;50.862;6.220;2023-04-24T07:16:40;3.03;;;2.03;;
74904;SDS011;63465;50.862;6.220;2023-04-24T07:19:06;2.47;;;2.27;;
74904;SDS011;63465;50.862;6.220;2023-04-24T07:21:31;2.90;;;2.70;;
74904;SDS011;63465;50.862;6.220;2023-04-24T07:23:59;7.43;;;2.97;;
74904;SDS011;63465;50.862;6.220;2023-04-24T07:26:25;5.80;;;3.37;;
74904;SDS011;63465;50.862;6.220;2023-04-24T07:28:52;3.37;;;3.07;;
74904;SDS011;63465;50.862;6.220;2023-04-24T07:31:17;5.50;;;3.40;;
74904;SDS011;63465;50.862;6.220;2023-04-24T07:33:43;3.63;;;3.30;;
74904;SDS011;63465;50.862;6.220;2023-04-24T07:36:08;2.93;;;2.73;;
74904;SDS011;63465;50.862;6.220;2023-04-24T07:38:40;2.87;;;2.50;;
74904;SDS011;63465;50.862;6.220;2023-04-24T07:41:05;6.40;;;3.60;;
74904;SDS011;63465;50.862;6.220;2023-04-24T07:43:30;2.90;;;2.70;;
74904;SDS011;63465;50.862;6.220;2023-04-24T07:45:56;3.50;;;2.80;;
74904;SDS011;63465;50.862;6.220;2023-04-24T07:48:21;4.13;;;3.20;;
74904;SDS011;63465;50.862;6.220;2023-04-24T07:50:47;4.70;;;3.60;;
74904;SDS011;63465;50.862;6.220;2023-04-24T07:53:12;6.90;;;3.73;;
74904;SDS011;63465;50.862;6.220;2023-04-24T07:55:37;4.83;;;3.50;;
74904;SDS011;63465;50.862;6.220;2023-04-24T07:58:03;6.43;;;3.60;;
74904;SDS011;63465;50.862;6.220;2023-04-24T08:00:29;5.87;;;4.30;;
74904;SDS011;63465;50.862;6.220;2023-04-24T08:02:54;5.00;;;3.87;;
74904;SDS011;63465;50.862;6.220;2023-04-24T08:05:19;4.30;;;3.90;;
74904;SDS011;63465;50.862;6.220;2023-04-24T08:07:45;6.57;;;4.27;;
74904;SDS011;63465;50.862;6.220;2023-04-24T08:10:13;8.50;;;5.10;;
74904;SDS011;63465;50.862;6.220;2023-04-24T08:12:38;8.40;;;4.77;;
74904;SDS011;63465;50.862;6.220;2023-04-24T08:15:04;4.60;;;3.63;;
74904;SDS011;63465;50.862;6.220;2023-04-24T08:17:30;5.37;;;4.47;;
74904;SDS011;63465;50.862;6.220;2023-04-24T08:19:55;5.93;;;4.47;;
74904;SDS011;63465;50.862;6.220;2023-04-24T08:22:26;5.90;;;4.80;;
74904;SDS011;63465;50.862;6.220;2023-04-24T08:24:54;4.27;;;2.87;;
74904;SDS011;63465;50.862;6.220;2023-04-24T08:27:20;7.53;;;4.47;;
74904;SDS011;63465;50.862;6.220;2023-04-24T08:29:46;5.87;;;4.67;;
74904;SDS011;63465;50.862;6.220;2023-04-24T08:32:11;4.23;;;3.40;;
74904;SDS011;63465;50.862;6.220;2023-04-24T08:34:37;8.37;;;4.17;;
74904;SDS011;63465;50.862;6.220;2023-04-24T08:37:02;4.83;;;4.37;;
74904;SDS011;63465;50.862;6.220;2023-04-24T08:39:28;5.63;;;4.53;;
74904;SDS011;63465;50.862;6.220;2023-04-24T08:41:54;4.83;;;4.07;;
74904;SDS011;63465;50.862;6.220;2023-04-24T08:44:20;5.30;;;3.63;;
74904;SDS011;63465;50.862;6.220;2023-04-24T08:46:46;6.37;;;4.20;;
74904;SDS011;63465;50.862;6.220;2023-04-24T08:49:13;6.60;;;4.00;;
74904;SDS011;63465;50.862;6.220;2023-04-24T08:51:41;7.10;;;5.00;;
74904;SDS011;63465;50.862;6.220;2023-04-24T08:54:07;6.17;;;4.53;;
74904;SDS011;63465;50.862;6.220;2023-04-24T08:56:33;6.70;;;4.73;;
74904;SDS011;63465;50.862;6.220;2023-04-24T08:58:59;9.43;;;5.17;;
74904;SDS011;63465;50.862;6.220;2023-04-24T09:01:24;4.40;;;4.00;;
74904;SDS011;63465;50.862;6.220;2023-04-24T09:03:50;4.37;;;3.57;;
74904;SDS011;63465;50.862;6.220;2023-04-24T09:06:18;7.00;;;4.67;;
74904;SDS011;63465;50.862;6.220;2023-04-24T09:08:45;6.90;;;3.93;;
74904;SDS011;63465;50.862;6.220;2023-04-24T09:11:11;5.37;;;4.67;;
74904;SDS011;63465;50.862;6.220;2023-04-24T09:13:37;8.63;;;4.37;;
74904;SDS011;63465;50.862;6.220;2023-04-24T09:16:02;8.83;;;4.50;;
74904;SDS011;63465;50.862;6.220;2023-04-24T09:18:28;5.87;;;4.47;;
74904;SDS011;63465;50.862;6.220;2023-04-24T09:20:56;4.30;;;3.90;;
74904;SDS011;63465;50.862;6.220;2023-04-24T09:23:25;4.30;;;3.83;;
74904;SDS011;63465;50.862;6.220;2023-04-24T09:25:53;6.90;;;4.33;;
74904;SDS011;63465;50.862;6.220;2023-04-24T09:28:22;8.40;;;4.43;;
74904;SDS011;63465;50.862;6.220;2023-04-24T09:31:01;6.10;;;4.20;;
74904;SDS011;63465;50.862;6.220;2023-04-24T09:33:34;11.23;;;4.50;;
74904;SDS011;63465;50.862;6.220;2023-04-24T09:36:00;8.83;;;4.13;;
74904;SDS011;63465;50.862;6.220;2023-04-24T09:38:37;5.67;;;3.80;;
74904;SDS011;63465;50.862;6.220;2023-04-24T09:41:07;3.20;;;2.90;;
74904;SDS011;63465;50.862;6.220;2023-04-24T09:43:33;7.03;;;3.77;;
74904;SDS011;63465;50.862;6.220;2023-04-24T09:46:05;5.10;;;3.97;;
74904;SDS011;63465;50.862;6.220;2023-04-24T09:48:32;7.30;;;4.43;;
74904;SDS011;63465;50.862;6.220;2023-04-24T09:51:00;14.93;;;4.50;;
74904;SDS011;63465;50.862;6.220;2023-04-24T09:53:27;7.27;;;4.73;;
74904;SDS011;63465;50.862;6.220;2023-04-24T09:55:52;8.43;;;4.50;;
74904;SDS011;63465;50.862;6.220;2023-04-24T09:58:18;8.03;;;5.80;;
74904;SDS011;63465;50.862;6.220;2023-04-24T10:00:49;8.50;;;5.20;;
74904;SDS011;63465;50.862;6.220;2023-04-24T10:03:17;8.20;;;6.23;;
74904;SDS011;63465;50.862;6.220;2023-04-24T10:05:44;9.87;;;5.90;;
74904;SDS011;63465;50.862;6.220;2023-04-24T10:08:12;9.07;;;5.60;;
74904;SDS011;63465;50.862;6.220;2023-04-24T10:10:39;6.90;;;6.03;;
74904;SDS011;63465;50.862;6.220;2023-04-24T10:13:08;14.10;;;6.60;;
74904;SDS011;63465;50.862;6.220;2023-04-24T10:15:35;7.40;;;5.50;;
74904;SDS011;63465;50.862;6.220;2023-04-24T10:18:00;8.47;;;6.13;;
74904;SDS011;63465;50.862;6.220;2023-04-24T10:20:28;5.70;;;4.50;;
74904;SDS011;63465;50.862;6.220;2023-04-24T10:22:58;8.60;;;4.67;;
74904;SDS011;63465;50.862;6.220;2023-04-24T10:25:32;11.80;;;4.50;;
74904;SDS011;63465;50.862;6.220;2023-04-24T10:28:00;7.73;;;4.43;;
74904;SDS011;63465;50.862;6.220;2023-04-24T10:30:27;7.30;;;4.13;;
74904;SDS011;63465;50.862;6.220;2023-04-24T10:32:54;6.97;;;3.80;;
74904;SDS011;63465;50.862;6.220;2023-04-24T10:35:19;8.50;;;4.13;;
74904;SDS011;63465;50.862;6.220;2023-04-24T10:37:58;6.73;;;3.57;;
74904;SDS011;63465;50.862;6.220;2023-04-24T10:40:31;8.43;;;4.33;;
74904;SDS011;63465;50.862;6.220;2023-04-24T10:43:04;7.30;;;3.90;;
74904;SDS011;63465;50.862;6.220;2023-04-24T10:45:35;7.03;;;3.60;;
74904;SDS011;63465;50.862;6.220;2023-04-24T10:48:02;5.63;;;3.70;;
74904;SDS011;63465;50.862;6.220;2023-04-24T10:50:29;6.67;;;4.10;;
74904;SDS011;63465;50.862;6.220;2023-04-24T10:53:07;4.77;;;3.40;;
74904;SDS011;63465;50.862;6.220;2023-04-24T10:58:08;7.00;;;4.60;;
74904;SDS011;63465;50.862;6.220;2023-04-24T11:00:35;11.90;;;4.93;;
74904;SDS011;63465;50.862;6.220;2023-04-24T11:03:04;13.10;;;5.10;;
74904;SDS011;63465;50.862;6.220;2023-04-24T11:06:31;7.57;;;4.60;;
74904;SDS011;63465;50.862;6.220;2023-04-24T11:08:28;7.37;;;4.60;;
74904;SDS011;63465;50.862;6.220;2023-04-24T11:11:02;11.53;;;5.03;;
74904;SDS011;63465;50.862;6.220;2023-04-24T11:16:20;16.27;;;5.40;;
74904;SDS011;63465;50.862;6.220;2023-04-24T11:18:59;12.00;;;6.10;;
74904;SDS011;63465;50.862;6.220;2023-04-24T11:24:48;11.00;;;6.10;;
74904;SDS011;63465;50.862;6.220;2023-04-24T11:27:16;13.10;;;5.90;;
74904;SDS011;63465;50.862;6.220;2023-04-24T11:37:42;13.47;;;5.70;;
74904;SDS011;63465;50.862;6.220;2023-04-24T11:40:14;10.10;;;5.70;;
74904;SDS011;63465;50.862;6.220;2023-04-24T11:42:41;12.83;;;5.90;;
74904;SDS011;63465;50.862;6.220;2023-04-24T11:45:08;8.70;;;5.00;;
74904;SDS011;63465;50.862;6.220;2023-04-24T11:47:35;9.60;;;5.27;;
74904;SDS011;63465;50.862;6.220;2023-04-24T11:50:00;7.87;;;4.77;;
74904;SDS011;63465;50.862;6.220;2023-04-24T11:52:27;6.63;;;4.23;;
74904;SDS011;63465;50.862;6.220;2023-04-24T11:54:53;8.63;;;4.77;;
74904;SDS011;63465;50.862;6.220;2023-04-24T11:57:21;8.20;;;4.70;;
74904;SDS011;63465;50.862;6.220;2023-04-24T11:59:48;9.70;;;3.80;;
74904;SDS011;63465;50.862;6.220;2023-04-24T12:02:21;8.87;;;3.87;;
74904;SDS011;63465;50.862;6.220;2023-04-24T12:04:47;5.80;;;4.13;;
74904;SDS011;63465;50.862;6.220;2023-04-24T12:07:13;12.33;;;4.13;;
74904;SDS011;63465;50.862;6.220;2023-04-24T12:09:42;5.00;;;3.33;;
74904;SDS011;63465;50.862;6.220;2023-04-24T12:12:16;7.60;;;4.83;;
74904;SDS011;63465;50.862;6.220;2023-04-24T12:14:45;6.90;;;4.50;;
74904;SDS011;63465;50.862;6.220;2023-04-24T12:17:13;8.90;;;4.70;;
74904;SDS011;63465;50.862;6.220;2023-04-24T12:19:44;10.13;;;4.97;;
74904;SDS011;63465;50.862;6.220;2023-04-24T12:22:10;9.10;;;4.57;;
74904;SDS011;63465;50.862;6.220;2023-04-24T12:24:54;9.63;;;4.93;;
74904;SDS011;63465;50.862;6.220;2023-04-24T12:27:23;6.70;;;4.87;;
74904;SDS011;63465;50.862;6.220;2023-04-24T12:29:58;8.20;;;5.33;;
74904;SDS011;63465;50.862;6.220;2023-04-24T12:32:24;12.37;;;5.30;;
74904;SDS011;63465;50.862;6.220;2023-04-24T12:34:50;12.93;;;5.93;;
74904;SDS011;63465;50.862;6.220;2023-04-24T12:37:17;8.23;;;5.33;;
74904;SDS011;63465;50.862;6.220;2023-04-24T12:42:28;8.47;;;5.27;;
74904;SDS011;63465;50.862;6.220;2023-04-24T12:45:02;11.50;;;5.37;;
74904;SDS011;63465;50.862;6.220;2023-04-24T12:47:29;6.90;;;5.37;;
74904;SDS011;63465;50.862;6.220;2023-04-24T12:49:56;9.93;;;5.57;;
74904;SDS011;63465;50.862;6.220;2023-04-24T12:52:22;8.57;;;4.70;;
74904;SDS011;63465;50.862;6.220;2023-04-24T12:54:48;9.53;;;5.40;;
74904;SDS011;63465;50.862;6.220;2023-04-24T12:57:14;10.80;;;5.50;;
74904;SDS011;63465;50.862;6.220;2023-04-24T12:59:40;13.43;;;6.03;;
74904;SDS011;63465;50.862;6.220;2023-04-24T13:02:06;11.23;;;5.23;;
74904;SDS011;63465;50.862;6.220;2023-04-24T13:04:31;10.63;;;4.87;;
74904;SDS011;63465;50.862;6.220;2023-04-24T13:06:57;8.93;;;4.90;;
74904;SDS011;63465;50.862;6.220;2023-04-24T13:09:22;10.23;;;6.00;;
74904;SDS011;63465;50.862;6.220;2023-04-24T13:11:48;10.13;;;4.90;;
74904;SDS011;63465;50.862;6.220;2023-04-24T13:14:14;11.93;;;5.30;;
74904;SDS011;63465;50.862;6.220;2023-04-24T13:16:40;6.33;;;4.10;;
74904;SDS011;63465;50.862;6.220;2023-04-24T13:19:05;8.10;;;4.17;;
74904;SDS011;63465;50.862;6.220;2023-04-24T13:21:30;10.93;;;4.23;;
74904;SDS011;63465;50.862;6.220;2023-04-24T13:23:56;7.47;;;3.70;;
74904;SDS011;63465;50.862;6.220;2023-04-24T13:26:22;10.13;;;4.10;;
74904;SDS011;63465;50.862;6.220;2023-04-24T13:28:47;10.60;;;4.07;;
74904;SDS011;63465;50.862;6.220;2023-04-24T13:31:13;8.10;;;4.80;;
74904;SDS011;63465;50.862;6.220;2023-04-24T13:33:38;12.30;;;4.90;;
74904;SDS011;63465;50.862;6.220;2023-04-24T13:36:04;9.43;;;5.20;;
74904;SDS011;63465;50.862;6.220;2023-04-24T13:38:29;5.90;;;4.23;;
74904;SDS011;63465;50.862;6.220;2023-04-24T13:40:54;6.67;;;4.10;;
74904;SDS011;63465;50.862;6.220;2023-04-24T13:43:20;7.10;;;3.87;;
74904;SDS011;63465;50.862;6.220;2023-04-24T13:45:45;10.37;;;5.13;;
74904;SDS011;63465;50.862;6.220;2023-04-24T13:48:10;6.30;;;3.50;;
74904;SDS011;63465;50.862;6.220;2023-04-24T13:50:36;6.43;;;4.13;;
74904;SDS011;63465;50.862;6.220;2023-04-24T13:53:01;15.33;;;4.37;;
74904;SDS011;63465;50.862;6.220;2023-04-24T13:55:27;4.63;;;3.90;;
74904;SDS011;63465;50.862;6.220;2023-04-24T13:57:52;8.90;;;3.73;;
74904;SDS011;63465;50.862;6.220;2023-04-24T14:00:20;6.70;;;4.00;;
74904;SDS011;63465;50.862;6.220;2023-04-24T14:02:45;8.43;;;3.77;;
74904;SDS011;63465;50.862;6.220;2023-04-24T14:05:12;6.13;;;3.87;;
74904;SDS011;63465;50.862;6.220;2023-04-24T14:07:40;6.83;;;4.60;;
74904;SDS011;63465;50.862;6.220;2023-04-24T14:10:05;4.10;;;3.40;;
74904;SDS011;63465;50.862;6.220;2023-04-24T14:12:31;8.83;;;4.50;;
74904;SDS011;63465;50.862;6.220;2023-04-24T14:14:56;6.00;;;3.50;;
74904;SDS011;63465;50.862;6.220;2023-04-24T14:17:21;4.17;;;3.77;;
74904;SDS011;63465;50.862;6.220;2023-04-24T14:19:47;3.97;;;3.57;;
74904;SDS011;63465;50.862;6.220;2023-04-24T14:22:12;8.70;;;3.73;;
74904;SDS011;63465;50.862;6.220;2023-04-24T14:24:37;8.90;;;4.67;;
74904;SDS011;63465;50.862;6.220;2023-04-24T14:27:02;6.50;;;4.23;;
74904;SDS011;63465;50.862;6.220;2023-04-24T14:29:28;5.80;;;4.30;;
74904;SDS011;63465;50.862;6.220;2023-04-24T14:31:53;7.90;;;3.73;;
74904;SDS011;63465;50.862;6.220;2023-04-24T14:34:18;5.53;;;3.53;;
74904;SDS011;63465;50.862;6.220;2023-04-24T14:36:44;11.20;;;3.60;;
74904;SDS011;63465;50.862;6.220;2023-04-24T14:39:10;6.83;;;3.73;;
74904;SDS011;63465;50.862;6.220;2023-04-24T14:41:35;5.03;;;3.70;;
74904;SDS011;63465;50.862;6.220;2023-04-24T14:44:02;6.10;;;3.87;;
74904;SDS011;63465;50.862;6.220;2023-04-24T14:46:28;6.80;;;3.70;;
74904;SDS011;63465;50.862;6.220;2023-04-24T14:48:55;6.50;;;4.00;;
74904;SDS011;63465;50.862;6.220;2023-04-24T14:51:21;7.00;;;3.50;;
74904;SDS011;63465;50.862;6.220;2023-04-24T14:53:46;4.83;;;3.70;;
74904;SDS011;63465;50.862;6.220;2023-04-24T14:56:12;5.47;;;3.27;;
74904;SDS011;63465;50.862;6.220;2023-04-24T14:58:38;6.30;;;3.57;;